sensor_id;sensor_type;location;lat;lon;timestamp;P1;durP1;ratioP1;P2;durP2;ratioP2
38972;SDS011;25333;50.762;4.470;2022-10-26T00:02:18;3.60;;;2.85;;
38972;SDS011;25333;50.762;4.470;2022-10-26T00:04:44;3.90;;;2.57;;
38972;SDS011;25333;50.762;4.470;2022-10-26T00:07:10;5.82;;;2.65;;
38972;SDS011;25333;50.762;4.470;2022-10-26T00:09:35;5.93;;;3.05;;
38972;SDS011;25333;50.762;4.470;2022-10-26T00:12:01;3.50;;;2.50;;
38972;SDS011;25333;50.762;4.470;2022-10-26T00:14:27;4.50;;;2.60;;
38972;SDS011;25333;50.762;4.470;2022-10-26T00:16:53;4.75;;;2.38;;
38972;SDS011;25333;50.762;4.470;2022-10-26T00:19:19;3.35;;;2.42;;
38972;SDS011;25333;50.762;4.470;2022-10-26T00:21:44;4.17;;;2.33;;
38972;SDS011;25333;50.762;4.470;2022-10-26T00:24:10;3.47;;;2.28;;
38972;SDS011;25333;50.762;4.470;2022-10-26T00:26:37;3.78;;;2.25;;
38972;SDS011;25333;50.762;4.470;2022-10-26T00:29:03;4.10;;;2.50;;
38972;SDS011;25333;50.762;4.470;2022-10-26T00:31:31;5.25;;;2.95;;
38972;SDS011;25333;50.762;4.470;2022-10-26T00:33:57;6.28;;;2.75;;
38972;SDS011;25333;50.762;4.470;2022-10-26T00:36:23;4.70;;;2.57;;
38972;SDS011;25333;50.762;4.470;2022-10-26T00:38:50;3.60;;;2.53;;
38972;SDS011;25333;50.762;4.470;2022-10-26T00:41:18;3.83;;;2.17;;
38972;SDS011;25333;50.762;4.470;2022-10-26T00:43:46;4.35;;;1.92;;
38972;SDS011;25333;50.762;4.470;2022-10-26T00:46:13;4.32;;;2.58;;
38972;SDS011;25333;50.762;4.470;2022-10-26T00:48:52;4.07;;;2.53;;
38972;SDS011;25333;50.762;4.470;2022-10-26T00:51:26;2.70;;;2.00;;
38972;SDS011;25333;50.762;4.470;2022-10-26T00:54:16;4.13;;;2.03;;
38972;SDS011;25333;50.762;4.470;2022-10-26T00:56:43;3.58;;;2.17;;
38972;SDS011;25333;50.762;4.470;2022-10-26T00:59:10;4.32;;;1.90;;
38972;SDS011;25333;50.762;4.470;2022-10-26T01:01:39;4.10;;;1.98;;
38972;SDS011;25333;50.762;4.470;2022-10-26T01:04:07;6.03;;;2.47;;
38972;SDS011;25333;50.762;4.470;2022-10-26T01:06:33;3.30;;;2.08;;
38972;SDS011;25333;50.762;4.470;2022-10-26T01:09:00;3.42;;;1.80;;
38972;SDS011;25333;50.762;4.470;2022-10-26T01:11:26;3.50;;;1.87;;
38972;SDS011;25333;50.762;4.470;2022-10-26T01:13:52;3.80;;;1.67;;
38972;SDS011;25333;50.762;4.470;2022-10-26T01:21:54;3.08;;;1.70;;
38972;SDS011;25333;50.762;4.470;2022-10-26T01:24:37;3.28;;;1.67;;
38972;SDS011;25333;50.762;4.470;2022-10-26T01:32:44;4.22;;;1.77;;
38972;SDS011;25333;50.762;4.470;2022-10-26T01:35:18;3.33;;;2.42;;
38972;SDS011;25333;50.762;4.470;2022-10-26T01:38:38;7.07;;;2.00;;
38972;SDS011;25333;50.762;4.470;2022-10-26T01:41:03;5.13;;;1.75;;
38972;SDS011;25333;50.762;4.470;2022-10-26T01:43:39;2.70;;;1.75;;
38972;SDS011;25333;50.762;4.470;2022-10-26T01:46:08;4.20;;;1.90;;
38972;SDS011;25333;50.762;4.470;2022-10-26T01:48:35;5.13;;;1.70;;
38972;SDS011;25333;50.762;4.470;2022-10-26T01:51:03;4.90;;;1.97;;
38972;SDS011;25333;50.762;4.470;2022-10-26T01:53:31;2.88;;;1.40;;
38972;SDS011;25333;50.762;4.470;2022-10-26T01:55:57;4.10;;;1.10;;
38972;SDS011;25333;50.762;4.470;2022-10-26T02:04:59;3.03;;;1.30;;
38972;SDS011;25333;50.762;4.470;2022-10-26T02:13:14;5.15;;;1.30;;
38972;SDS011;25333;50.762;4.470;2022-10-26T02:21:19;4.50;;;0.88;;
38972;SDS011;25333;50.762;4.470;2022-10-26T02:23:47;2.05;;;0.73;;
38972;SDS011;25333;50.762;4.470;2022-10-26T02:26:15;2.80;;;0.90;;
38972;SDS011;25333;50.762;4.470;2022-10-26T02:28:45;3.22;;;1.20;;
38972;SDS011;25333;50.762;4.470;2022-10-26T02:31:14;2.55;;;0.88;;
38972;SDS011;25333;50.762;4.470;2022-10-26T02:33:43;6.25;;;0.90;;
38972;SDS011;25333;50.762;4.470;2022-10-26T02:36:12;3.33;;;1.05;;
38972;SDS011;25333;50.762;4.470;2022-10-26T02:38:49;2.33;;;0.60;;
38972;SDS011;25333;50.762;4.470;2022-10-26T02:41:18;2.92;;;1.08;;
38972;SDS011;25333;50.762;4.470;2022-10-26T02:43:51;2.97;;;0.85;;
38972;SDS011;25333;50.762;4.470;2022-10-26T02:46:21;2.70;;;0.93;;
38972;SDS011;25333;50.762;4.470;2022-10-26T02:48:50;2.25;;;0.65;;
38972;SDS011;25333;50.762;4.470;2022-10-26T02:51:46;4.20;;;0.63;;
38972;SDS011;25333;50.762;4.470;2022-10-26T02:54:18;2.90;;;0.90;;
38972;SDS011;25333;50.762;4.470;2022-10-26T03:00:07;2.78;;;0.50;;
38972;SDS011;25333;50.762;4.470;2022-10-26T03:02:37;3.80;;;0.80;;
38972;SDS011;25333;50.762;4.470;2022-10-26T03:05:08;1.92;;;0.80;;
38972;SDS011;25333;50.762;4.470;2022-10-26T03:07:39;1.55;;;0.50;;
38972;SDS011;25333;50.762;4.470;2022-10-26T03:10:05;3.35;;;0.88;;
38972;SDS011;25333;50.762;4.470;2022-10-26T03:12:39;2.67;;;0.50;;
38972;SDS011;25333;50.762;4.470;2022-10-26T03:15:04;3.53;;;0.68;;
38972;SDS011;25333;50.762;4.470;2022-10-26T03:17:30;2.45;;;0.60;;
38972;SDS011;25333;50.762;4.470;2022-10-26T03:20:00;1.85;;;0.50;;
38972;SDS011;25333;50.762;4.470;2022-10-26T03:22:30;2.40;;;0.90;;
38972;SDS011;25333;50.762;4.470;2022-10-26T03:24:56;1.92;;;0.52;;
38972;SDS011;25333;50.762;4.470;2022-10-26T03:27:21;2.60;;;0.68;;
38972;SDS011;25333;50.762;4.470;2022-10-26T03:29:48;0.90;;;0.43;;
38972;SDS011;25333;50.762;4.470;2022-10-26T03:32:17;3.88;;;0.80;;
38972;SDS011;25333;50.762;4.470;2022-10-26T03:34:47;2.73;;;0.80;;
38972;SDS011;25333;50.762;4.470;2022-10-26T03:37:12;1.90;;;0.90;;
38972;SDS011;25333;50.762;4.470;2022-10-26T03:39:38;3.40;;;0.70;;
38972;SDS011;25333;50.762;4.470;2022-10-26T03:42:04;4.17;;;0.80;;
38972;SDS011;25333;50.762;4.470;2022-10-26T03:44:31;1.80;;;0.82;;
38972;SDS011;25333;50.762;4.470;2022-10-26T03:47:01;1.58;;;0.60;;
38972;SDS011;25333;50.762;4.470;2022-10-26T03:49:29;2.30;;;0.73;;
38972;SDS011;25333;50.762;4.470;2022-10-26T03:55:23;3.17;;;0.88;;
38972;SDS011;25333;50.762;4.470;2022-10-26T03:57:50;2.60;;;0.90;;
38972;SDS011;25333;50.762;4.470;2022-10-26T04:00:16;4.70;;;0.97;;
38972;SDS011;25333;50.762;4.470;2022-10-26T04:02:43;3.30;;;0.93;;
38972;SDS011;25333;50.762;4.470;2022-10-26T04:05:38;3.10;;;0.63;;
38972;SDS011;25333;50.762;4.470;2022-10-26T04:08:04;4.50;;;1.10;;
38972;SDS011;25333;50.762;4.470;2022-10-26T04:10:30;4.77;;;0.97;;
38972;SDS011;25333;50.762;4.470;2022-10-26T04:12:56;2.23;;;0.70;;
38972;SDS011;25333;50.762;4.470;2022-10-26T04:15:25;1.98;;;0.50;;
38972;SDS011;25333;50.762;4.470;2022-10-26T04:17:58;3.55;;;0.95;;
38972;SDS011;25333;50.762;4.470;2022-10-26T04:20:47;2.92;;;0.65;;
38972;SDS011;25333;50.762;4.470;2022-10-26T04:23:16;2.10;;;1.00;;
38972;SDS011;25333;50.762;4.470;2022-10-26T04:25:50;2.90;;;0.83;;
38972;SDS011;25333;50.762;4.470;2022-10-26T04:28:17;2.42;;;0.50;;
38972;SDS011;25333;50.762;4.470;2022-10-26T04:30:42;2.70;;;0.70;;
38972;SDS011;25333;50.762;4.470;2022-10-26T04:33:08;1.20;;;0.60;;
38972;SDS011;25333;50.762;4.470;2022-10-26T04:38:29;2.50;;;0.80;;
38972;SDS011;25333;50.762;4.470;2022-10-26T04:40:55;3.17;;;0.80;;
38972;SDS011;25333;50.762;4.470;2022-10-26T04:43:21;2.30;;;1.10;;
38972;SDS011;25333;50.762;4.470;2022-10-26T04:45:48;2.35;;;0.95;;
38972;SDS011;25333;50.762;4.470;2022-10-26T04:51:53;3.65;;;0.70;;
38972;SDS011;25333;50.762;4.470;2022-10-26T04:54:19;1.87;;;0.60;;
38972;SDS011;25333;50.762;4.470;2022-10-26T04:56:55;2.15;;;0.50;;
38972;SDS011;25333;50.762;4.470;2022-10-26T04:59:26;3.33;;;0.80;;
38972;SDS011;25333;50.762;4.470;2022-10-26T05:02:09;3.03;;;0.80;;
38972;SDS011;25333;50.762;4.470;2022-10-26T05:04:35;3.55;;;0.88;;
38972;SDS011;25333;50.762;4.470;2022-10-26T05:07:01;1.50;;;0.70;;
38972;SDS011;25333;50.762;4.470;2022-10-26T05:09:43;3.17;;;0.85;;
38972;SDS011;25333;50.762;4.470;2022-10-26T05:12:24;1.80;;;0.50;;
38972;SDS011;25333;50.762;4.470;2022-10-26T05:14:54;4.68;;;1.13;;
38972;SDS011;25333;50.762;4.470;2022-10-26T05:17:30;3.22;;;0.70;;
38972;SDS011;25333;50.762;4.470;2022-10-26T05:19:56;2.35;;;0.88;;
38972;SDS011;25333;50.762;4.470;2022-10-26T05:23:14;2.75;;;1.30;;
38972;SDS011;25333;50.762;4.470;2022-10-26T05:25:46;3.97;;;1.20;;
38972;SDS011;25333;50.762;4.470;2022-10-26T05:28:28;2.40;;;0.52;;
38972;SDS011;25333;50.762;4.470;2022-10-26T05:30:57;1.80;;;0.75;;
38972;SDS011;25333;50.762;4.470;2022-10-26T05:33:32;2.65;;;0.75;;
38972;SDS011;25333;50.762;4.470;2022-10-26T05:35:57;2.20;;;0.70;;
38972;SDS011;25333;50.762;4.470;2022-10-26T05:38:23;3.90;;;0.90;;
38972;SDS011;25333;50.762;4.470;2022-10-26T05:40:56;2.00;;;0.90;;
38972;SDS011;25333;50.762;4.470;2022-10-26T05:43:29;4.40;;;0.77;;
38972;SDS011;25333;50.762;4.470;2022-10-26T05:45:55;3.50;;;0.70;;
38972;SDS011;25333;50.762;4.470;2022-10-26T05:48:20;6.13;;;0.80;;
38972;SDS011;25333;50.762;4.470;2022-10-26T05:50:53;2.93;;;0.77;;
38972;SDS011;25333;50.762;4.470;2022-10-26T05:53:39;3.40;;;0.95;;
38972;SDS011;25333;50.762;4.470;2022-10-26T05:56:12;2.13;;;1.00;;
38972;SDS011;25333;50.762;4.470;2022-10-26T05:59:03;2.40;;;1.13;;
38972;SDS011;25333;50.762;4.470;2022-10-26T06:05:08;3.22;;;1.20;;
38972;SDS011;25333;50.762;4.470;2022-10-26T06:08:26;2.20;;;0.77;;
38972;SDS011;25333;50.762;4.470;2022-10-26T06:10:53;1.80;;;0.80;;
38972;SDS011;25333;50.762;4.470;2022-10-26T06:13:28;2.22;;;0.90;;
38972;SDS011;25333;50.762;4.470;2022-10-26T06:16:07;2.83;;;0.80;;
38972;SDS011;25333;50.762;4.470;2022-10-26T06:31:15;5.80;;;1.20;;
38972;SDS011;25333;50.762;4.470;2022-10-26T06:33:47;3.58;;;1.20;;
38972;SDS011;25333;50.762;4.470;2022-10-26T06:36:20;2.58;;;0.93;;
38972;SDS011;25333;50.762;4.470;2022-10-26T06:39:26;3.38;;;1.92;;
38972;SDS011;25333;50.762;4.470;2022-10-26T06:42:04;4.03;;;1.27;;
38972;SDS011;25333;50.762;4.470;2022-10-26T06:45:14;3.10;;;1.05;;
38972;SDS011;25333;50.762;4.470;2022-10-26T06:47:56;3.85;;;1.50;;
38972;SDS011;25333;50.762;4.470;2022-10-26T06:51:11;3.90;;;1.33;;
38972;SDS011;25333;50.762;4.470;2022-10-26T06:54:24;2.85;;;1.42;;
38972;SDS011;25333;50.762;4.470;2022-10-26T06:56:49;3.88;;;1.30;;
38972;SDS011;25333;50.762;4.470;2022-10-26T06:59:30;4.23;;;1.90;;
38972;SDS011;25333;50.762;4.470;2022-10-26T07:02:15;2.88;;;1.40;;
38972;SDS011;25333;50.762;4.470;2022-10-26T07:04:49;3.97;;;1.52;;
38972;SDS011;25333;50.762;4.470;2022-10-26T07:07:24;4.20;;;1.55;;
38972;SDS011;25333;50.762;4.470;2022-10-26T07:09:53;3.28;;;1.50;;
38972;SDS011;25333;50.762;4.470;2022-10-26T07:12:19;6.30;;;1.65;;
38972;SDS011;25333;50.762;4.470;2022-10-26T07:14:45;3.80;;;1.60;;
38972;SDS011;25333;50.762;4.470;2022-10-26T07:17:10;3.58;;;1.30;;
38972;SDS011;25333;50.762;4.470;2022-10-26T07:19:43;3.27;;;1.33;;
38972;SDS011;25333;50.762;4.470;2022-10-26T07:22:22;6.80;;;1.60;;
38972;SDS011;25333;50.762;4.470;2022-10-26T07:25:03;4.67;;;1.53;;
38972;SDS011;25333;50.762;4.470;2022-10-26T07:27:36;4.70;;;2.15;;
38972;SDS011;25333;50.762;4.470;2022-10-26T07:30:02;7.20;;;1.97;;
38972;SDS011;25333;50.762;4.470;2022-10-26T07:32:33;6.10;;;1.40;;
38972;SDS011;25333;50.762;4.470;2022-10-26T07:35:00;3.67;;;1.50;;
38972;SDS011;25333;50.762;4.470;2022-10-26T07:37:26;2.45;;;1.08;;
38972;SDS011;25333;50.762;4.470;2022-10-26T07:40:19;3.78;;;1.38;;
38972;SDS011;25333;50.762;4.470;2022-10-26T07:45:19;3.80;;;1.65;;
38972;SDS011;25333;50.762;4.470;2022-10-26T07:48:04;4.28;;;1.40;;
38972;SDS011;25333;50.762;4.470;2022-10-26T07:50:30;3.50;;;1.60;;
38972;SDS011;25333;50.762;4.470;2022-10-26T07:53:12;3.83;;;1.10;;
38972;SDS011;25333;50.762;4.470;2022-10-26T07:55:38;2.95;;;1.30;;
38972;SDS011;25333;50.762;4.470;2022-10-26T07:58:22;2.58;;;1.27;;
38972;SDS011;25333;50.762;4.470;2022-10-26T08:00:53;5.68;;;1.35;;
38972;SDS011;25333;50.762;4.470;2022-10-26T08:03:53;3.63;;;1.02;;
38972;SDS011;25333;50.762;4.470;2022-10-26T08:06:58;2.97;;;1.13;;
38972;SDS011;25333;50.762;4.470;2022-10-26T08:09:39;4.15;;;1.05;;
38972;SDS011;25333;50.762;4.470;2022-10-26T08:12:07;4.88;;;1.00;;
38972;SDS011;25333;50.762;4.470;2022-10-26T08:14:43;3.22;;;1.25;;
38972;SDS011;25333;50.762;4.470;2022-10-26T08:17:30;3.67;;;1.27;;
38972;SDS011;25333;50.762;4.470;2022-10-26T08:20:04;5.72;;;1.55;;
38972;SDS011;25333;50.762;4.470;2022-10-26T08:29:29;3.65;;;0.93;;
38972;SDS011;25333;50.762;4.470;2022-10-26T08:38:06;3.80;;;0.73;;
38972;SDS011;25333;50.762;4.470;2022-10-26T08:40:33;3.85;;;0.75;;
38972;SDS011;25333;50.762;4.470;2022-10-26T08:49:39;2.10;;;0.80;;
38972;SDS011;25333;50.762;4.470;2022-10-26T08:52:29;2.20;;;0.55;;
38972;SDS011;25333;50.762;4.470;2022-10-26T09:01:39;3.87;;;0.70;;
38972;SDS011;25333;50.762;4.470;2022-10-26T09:26:00;2.38;;;0.52;;
38972;SDS011;25333;50.762;4.470;2022-10-26T09:31:21;4.65;;;0.80;;
38972;SDS011;25333;50.762;4.470;2022-10-26T09:33:49;4.47;;;1.00;;
38972;SDS011;25333;50.762;4.470;2022-10-26T09:37:12;2.75;;;0.77;;
38972;SDS011;25333;50.762;4.470;2022-10-26T09:52:50;3.15;;;0.65;;
38972;SDS011;25333;50.762;4.470;2022-10-26T09:55:55;2.97;;;0.90;;
38972;SDS011;25333;50.762;4.470;2022-10-26T09:58:54;3.75;;;0.85;;
38972;SDS011;25333;50.762;4.470;2022-10-26T10:04:21;4.30;;;1.02;;
38972;SDS011;25333;50.762;4.470;2022-10-26T10:09:27;3.20;;;0.70;;
38972;SDS011;25333;50.762;4.470;2022-10-26T10:12:41;5.93;;;1.27;;
38972;SDS011;25333;50.762;4.470;2022-10-26T10:14:56;4.10;;;0.90;;
38972;SDS011;25333;50.762;4.470;2022-10-26T10:18:03;2.17;;;0.80;;
38972;SDS011;25333;50.762;4.470;2022-10-26T10:23:35;2.17;;;0.60;;
38972;SDS011;25333;50.762;4.470;2022-10-26T10:29:47;2.83;;;0.70;;
38972;SDS011;25333;50.762;4.470;2022-10-26T10:35:48;2.78;;;0.50;;
38972;SDS011;25333;50.762;4.470;2022-10-26T10:38:40;3.30;;;0.60;;
38972;SDS011;25333;50.762;4.470;2022-10-26T10:44:28;3.63;;;0.98;;
38972;SDS011;25333;50.762;4.470;2022-10-26T10:47:00;5.03;;;0.63;;
38972;SDS011;25333;50.762;4.470;2022-10-26T10:49:27;2.53;;;0.55;;
38972;SDS011;25333;50.762;4.470;2022-10-26T10:51:55;1.50;;;0.60;;
38972;SDS011;25333;50.762;4.470;2022-10-26T10:59:24;2.65;;;0.60;;
38972;SDS011;25333;50.762;4.470;2022-10-26T11:08:04;3.80;;;0.80;;
38972;SDS011;25333;50.762;4.470;2022-10-26T11:10:51;1.23;;;0.60;;
38972;SDS011;25333;50.762;4.470;2022-10-26T11:13:28;2.13;;;0.57;;
38972;SDS011;25333;50.762;4.470;2022-10-26T11:16:15;3.30;;;0.70;;
38972;SDS011;25333;50.762;4.470;2022-10-26T11:22:15;2.45;;;0.50;;
38972;SDS011;25333;50.762;4.470;2022-10-26T11:25:21;2.70;;;0.80;;
38972;SDS011;25333;50.762;4.470;2022-10-26T11:27:59;2.53;;;0.60;;
38972;SDS011;25333;50.762;4.470;2022-10-26T11:31:16;2.07;;;0.40;;
38972;SDS011;25333;50.762;4.470;2022-10-26T11:34:05;1.50;;;0.50;;
38972;SDS011;25333;50.762;4.470;2022-10-26T11:36:35;3.75;;;0.75;;
38972;SDS011;25333;50.762;4.470;2022-10-26T11:39:10;3.70;;;0.87;;
38972;SDS011;25333;50.762;4.470;2022-10-26T11:42:00;1.58;;;0.40;;
38972;SDS011;25333;50.762;4.470;2022-10-26T11:44:42;1.92;;;0.68;;
38972;SDS011;25333;50.762;4.470;2022-10-26T11:47:18;2.75;;;0.50;;
38972;SDS011;25333;50.762;4.470;2022-10-26T11:50:37;1.70;;;0.40;;
38972;SDS011;25333;50.762;4.470;2022-10-26T11:53:31;3.05;;;0.60;;
38972;SDS011;25333;50.762;4.470;2022-10-26T11:56:31;3.33;;;0.77;;
38972;SDS011;25333;50.762;4.470;2022-10-26T12:03:18;2.67;;;0.50;;
38972;SDS011;25333;50.762;4.470;2022-10-26T12:21:00;2.60;;;0.80;;
38972;SDS011;25333;50.762;4.470;2022-10-26T12:23:38;5.88;;;0.70;;
38972;SDS011;25333;50.762;4.470;2022-10-26T12:35:25;2.28;;;0.75;;
38972;SDS011;25333;50.762;4.470;2022-10-26T12:47:06;2.80;;;0.65;;
38972;SDS011;25333;50.762;4.470;2022-10-26T12:52:40;3.10;;;0.70;;
38972;SDS011;25333;50.762;4.470;2022-10-26T12:55:27;2.30;;;0.52;;
38972;SDS011;25333;50.762;4.470;2022-10-26T13:01:18;3.35;;;0.45;;
38972;SDS011;25333;50.762;4.470;2022-10-26T13:04:24;1.42;;;0.55;;
38972;SDS011;25333;50.762;4.470;2022-10-26T13:09:59;2.73;;;0.50;;
38972;SDS011;25333;50.762;4.470;2022-10-26T13:12:34;2.97;;;0.60;;
38972;SDS011;25333;50.762;4.470;2022-10-26T13:15:23;1.83;;;0.50;;
38972;SDS011;25333;50.762;4.470;2022-10-26T13:18:06;2.65;;;0.60;;
38972;SDS011;25333;50.762;4.470;2022-10-26T13:20:35;2.55;;;0.50;;
38972;SDS011;25333;50.762;4.470;2022-10-26T13:23:15;6.90;;;0.68;;
38972;SDS011;25333;50.762;4.470;2022-10-26T13:26:10;2.13;;;0.38;;
38972;SDS011;25333;50.762;4.470;2022-10-26T13:28:46;2.20;;;0.40;;
38972;SDS011;25333;50.762;4.470;2022-10-26T13:34:00;3.78;;;0.77;;
38972;SDS011;25333;50.762;4.470;2022-10-26T13:36:33;2.55;;;0.47;;
38972;SDS011;25333;50.762;4.470;2022-10-26T13:42:02;3.75;;;0.32;;
38972;SDS011;25333;50.762;4.470;2022-10-26T13:45:32;3.03;;;0.50;;
38972;SDS011;25333;50.762;4.470;2022-10-26T13:47:31;3.17;;;0.40;;
38972;SDS011;25333;50.762;4.470;2022-10-26T13:50:35;1.35;;;0.32;;
38972;SDS011;25333;50.762;4.470;2022-10-26T13:53:13;2.15;;;0.38;;
38972;SDS011;25333;50.762;4.470;2022-10-26T13:55:47;2.80;;;0.60;;
38972;SDS011;25333;50.762;4.470;2022-10-26T13:58:26;1.70;;;0.57;;
38972;SDS011;25333;50.762;4.470;2022-10-26T14:01:17;1.98;;;0.35;;
38972;SDS011;25333;50.762;4.470;2022-10-26T14:06:43;1.08;;;0.50;;
38972;SDS011;25333;50.762;4.470;2022-10-26T14:09:30;2.42;;;0.60;;
38972;SDS011;25333;50.762;4.470;2022-10-26T14:11:59;2.47;;;0.45;;
38972;SDS011;25333;50.762;4.470;2022-10-26T14:14:33;2.10;;;0.30;;
38972;SDS011;25333;50.762;4.470;2022-10-26T14:17:02;3.58;;;0.60;;
38972;SDS011;25333;50.762;4.470;2022-10-26T14:19:33;4.03;;;0.80;;
38972;SDS011;25333;50.762;4.470;2022-10-26T14:22:20;5.63;;;0.60;;
38972;SDS011;25333;50.762;4.470;2022-10-26T14:24:55;3.00;;;0.47;;
38972;SDS011;25333;50.762;4.470;2022-10-26T14:27:23;4.10;;;0.50;;
38972;SDS011;25333;50.762;4.470;2022-10-26T14:29:53;2.40;;;0.30;;
38972;SDS011;25333;50.762;4.470;2022-10-26T14:32:28;2.77;;;0.50;;
38972;SDS011;25333;50.762;4.470;2022-10-26T14:34:59;3.05;;;0.60;;
38972;SDS011;25333;50.762;4.470;2022-10-26T14:40:14;3.20;;;0.50;;
38972;SDS011;25333;50.762;4.470;2022-10-26T14:42:46;2.55;;;0.60;;
38972;SDS011;25333;50.762;4.470;2022-10-26T14:45:32;2.90;;;0.40;;
38972;SDS011;25333;50.762;4.470;2022-10-26T14:48:00;3.20;;;0.50;;
38972;SDS011;25333;50.762;4.470;2022-10-26T14:50:27;1.13;;;0.20;;
38972;SDS011;25333;50.762;4.470;2022-10-26T14:53:16;1.00;;;0.30;;
38972;SDS011;25333;50.762;4.470;2022-10-26T14:55:54;3.58;;;0.28;;
38972;SDS011;25333;50.762;4.470;2022-10-26T14:58:31;3.30;;;0.50;;
38972;SDS011;25333;50.762;4.470;2022-10-26T15:01:15;2.08;;;0.50;;
38972;SDS011;25333;50.762;4.470;2022-10-26T15:03:54;1.97;;;0.50;;
38972;SDS011;25333;50.762;4.470;2022-10-26T15:08:53;2.50;;;0.50;;
38972;SDS011;25333;50.762;4.470;2022-10-26T15:11:19;2.50;;;0.40;;
38972;SDS011;25333;50.762;4.470;2022-10-26T15:13:45;4.43;;;0.57;;
38972;SDS011;25333;50.762;4.470;2022-10-26T15:16:29;3.60;;;0.88;;
38972;SDS011;25333;50.762;4.470;2022-10-26T15:24:52;3.57;;;0.50;;
38972;SDS011;25333;50.762;4.470;2022-10-26T15:27:03;1.48;;;0.32;;
38972;SDS011;25333;50.762;4.470;2022-10-26T15:29:41;1.70;;;0.47;;
38972;SDS011;25333;50.762;4.470;2022-10-26T15:32:20;2.67;;;0.80;;
38972;SDS011;25333;50.762;4.470;2022-10-26T15:34:49;1.38;;;0.30;;
38972;SDS011;25333;50.762;4.470;2022-10-26T15:37:36;1.40;;;0.25;;
38972;SDS011;25333;50.762;4.470;2022-10-26T15:40:02;3.20;;;0.60;;
38972;SDS011;25333;50.762;4.470;2022-10-26T15:42:28;1.00;;;0.30;;
38972;SDS011;25333;50.762;4.470;2022-10-26T15:44:54;1.73;;;0.45;;
38972;SDS011;25333;50.762;4.470;2022-10-26T15:47:20;2.42;;;0.50;;
38972;SDS011;25333;50.762;4.470;2022-10-26T15:49:46;4.00;;;0.60;;
38972;SDS011;25333;50.762;4.470;2022-10-26T15:52:12;1.30;;;0.40;;
38972;SDS011;25333;50.762;4.470;2022-10-26T15:54:38;2.97;;;0.40;;
38972;SDS011;25333;50.762;4.470;2022-10-26T15:57:04;3.75;;;0.45;;
38972;SDS011;25333;50.762;4.470;2022-10-26T15:59:32;1.17;;;0.50;;
38972;SDS011;25333;50.762;4.470;2022-10-26T16:01:58;2.88;;;0.50;;
38972;SDS011;25333;50.762;4.470;2022-10-26T16:04:24;1.38;;;0.25;;
38972;SDS011;25333;50.762;4.470;2022-10-26T16:06:50;6.40;;;0.70;;
38972;SDS011;25333;50.762;4.470;2022-10-26T16:09:15;2.30;;;0.40;;
38972;SDS011;25333;50.762;4.470;2022-10-26T16:11:42;3.70;;;0.43;;
38972;SDS011;25333;50.762;4.470;2022-10-26T16:14:18;2.00;;;0.43;;
38972;SDS011;25333;50.762;4.470;2022-10-26T16:16:43;2.17;;;0.38;;
38972;SDS011;25333;50.762;4.470;2022-10-26T16:19:09;4.93;;;0.40;;
38972;SDS011;25333;50.762;4.470;2022-10-26T16:21:42;2.40;;;0.43;;
38972;SDS011;25333;50.762;4.470;2022-10-26T16:24:08;2.75;;;0.43;;
38972;SDS011;25333;50.762;4.470;2022-10-26T16:44:44;2.43;;;0.40;;
38972;SDS011;25333;50.762;4.470;2022-10-26T16:47:10;3.13;;;0.40;;
38972;SDS011;25333;50.762;4.470;2022-10-26T16:52:49;3.63;;;0.88;;
38972;SDS011;25333;50.762;4.470;2022-10-26T16:55:17;2.47;;;0.30;;
38972;SDS011;25333;50.762;4.470;2022-10-26T17:00:37;1.92;;;0.43;;
38972;SDS011;25333;50.762;4.470;2022-10-26T17:03:15;1.38;;;0.32;;
38972;SDS011;25333;50.762;4.470;2022-10-26T17:05:41;2.58;;;0.30;;
38972;SDS011;25333;50.762;4.470;2022-10-26T17:08:09;2.93;;;0.40;;
38972;SDS011;25333;50.762;4.470;2022-10-26T17:11:08;1.77;;;0.30;;
38972;SDS011;25333;50.762;4.470;2022-10-26T17:17:15;2.42;;;0.98;;
38972;SDS011;25333;50.762;4.470;2022-10-26T17:19:40;3.70;;;0.50;;
38972;SDS011;25333;50.762;4.470;2022-10-26T17:22:06;2.77;;;0.60;;
38972;SDS011;25333;50.762;4.470;2022-10-26T17:24:32;6.10;;;0.57;;
38972;SDS011;25333;50.762;4.470;2022-10-26T17:26:57;2.47;;;0.53;;
38972;SDS011;25333;50.762;4.470;2022-10-26T17:29:23;1.40;;;0.40;;
38972;SDS011;25333;50.762;4.470;2022-10-26T17:31:49;2.22;;;0.50;;
38972;SDS011;25333;50.762;4.470;2022-10-26T17:45:15;1.70;;;0.40;;
38972;SDS011;25333;50.762;4.470;2022-10-26T18:06:05;3.95;;;0.70;;
38972;SDS011;25333;50.762;4.470;2022-10-26T18:08:33;3.13;;;0.60;;
38972;SDS011;25333;50.762;4.470;2022-10-26T18:12:09;4.32;;;1.30;;
38972;SDS011;25333;50.762;4.470;2022-10-26T18:14:32;5.03;;;1.65;;
38972;SDS011;25333;50.762;4.470;2022-10-26T18:16:58;3.67;;;1.42;;
38972;SDS011;25333;50.762;4.470;2022-10-26T18:22:25;3.60;;;1.98;;
38972;SDS011;25333;50.762;4.470;2022-10-26T18:24:51;3.33;;;1.50;;
38972;SDS011;25333;50.762;4.470;2022-10-26T18:27:16;5.53;;;1.58;;
38972;SDS011;25333;50.762;4.470;2022-10-26T18:29:44;5.22;;;1.92;;
38972;SDS011;25333;50.762;4.470;2022-10-26T18:32:09;2.67;;;1.55;;
38972;SDS011;25333;50.762;4.470;2022-10-26T18:34:48;5.77;;;1.97;;
38972;SDS011;25333;50.762;4.470;2022-10-26T18:37:15;9.70;;;1.80;;
38972;SDS011;25333;50.762;4.470;2022-10-26T18:39:40;4.10;;;2.03;;
38972;SDS011;25333;50.762;4.470;2022-10-26T18:42:51;3.50;;;1.45;;
38972;SDS011;25333;50.762;4.470;2022-10-26T18:45:08;2.90;;;1.38;;
38972;SDS011;25333;50.762;4.470;2022-10-26T18:47:34;2.80;;;1.30;;
38972;SDS011;25333;50.762;4.470;2022-10-26T18:50:00;3.92;;;1.40;;
38972;SDS011;25333;50.762;4.470;2022-10-26T18:52:25;2.33;;;1.08;;
38972;SDS011;25333;50.762;4.470;2022-10-26T18:54:52;2.47;;;1.42;;
38972;SDS011;25333;50.762;4.470;2022-10-26T18:57:47;6.40;;;1.67;;
38972;SDS011;25333;50.762;4.470;2022-10-26T19:00:23;4.20;;;0.98;;
38972;SDS011;25333;50.762;4.470;2022-10-26T19:02:48;5.45;;;1.33;;
38972;SDS011;25333;50.762;4.470;2022-10-26T19:05:14;4.17;;;1.40;;
38972;SDS011;25333;50.762;4.470;2022-10-26T19:07:40;2.53;;;1.17;;
38972;SDS011;25333;50.762;4.470;2022-10-26T19:10:32;5.57;;;1.20;;
38972;SDS011;25333;50.762;4.470;2022-10-26T19:12:57;3.42;;;1.20;;
38972;SDS011;25333;50.762;4.470;2022-10-26T19:15:28;3.47;;;0.90;;
38972;SDS011;25333;50.762;4.470;2022-10-26T19:18:14;2.35;;;1.02;;
38972;SDS011;25333;50.762;4.470;2022-10-26T19:20:44;2.90;;;1.07;;
38972;SDS011;25333;50.762;4.470;2022-10-26T19:23:13;3.53;;;1.10;;
38972;SDS011;25333;50.762;4.470;2022-10-26T19:25:40;5.68;;;1.10;;
38972;SDS011;25333;50.762;4.470;2022-10-26T19:28:08;2.47;;;0.80;;
38972;SDS011;25333;50.762;4.470;2022-10-26T19:30:39;5.20;;;1.00;;
38972;SDS011;25333;50.762;4.470;2022-10-26T19:33:08;3.63;;;0.90;;
38972;SDS011;25333;50.762;4.470;2022-10-26T19:35:33;3.03;;;0.87;;
38972;SDS011;25333;50.762;4.470;2022-10-26T19:38:05;2.63;;;0.93;;
38972;SDS011;25333;50.762;4.470;2022-10-26T19:40:55;4.63;;;1.08;;
38972;SDS011;25333;50.762;4.470;2022-10-26T19:43:25;2.22;;;1.33;;
38972;SDS011;25333;50.762;4.470;2022-10-26T19:46:26;3.05;;;0.70;;
38972;SDS011;25333;50.762;4.470;2022-10-26T19:48:54;2.03;;;0.80;;
38972;SDS011;25333;50.762;4.470;2022-10-26T19:51:21;2.45;;;0.80;;
38972;SDS011;25333;50.762;4.470;2022-10-26T19:53:47;6.80;;;0.95;;
38972;SDS011;25333;50.762;4.470;2022-10-26T19:56:32;1.95;;;0.60;;
38972;SDS011;25333;50.762;4.470;2022-10-26T19:59:02;5.03;;;1.10;;
38972;SDS011;25333;50.762;4.470;2022-10-26T20:01:28;2.53;;;0.73;;
38972;SDS011;25333;50.762;4.470;2022-10-26T20:03:54;5.80;;;0.90;;
38972;SDS011;25333;50.762;4.470;2022-10-26T20:09:21;3.67;;;0.63;;
38972;SDS011;25333;50.762;4.470;2022-10-26T20:11:49;2.60;;;0.70;;
38972;SDS011;25333;50.762;4.470;2022-10-26T20:14:14;3.85;;;0.90;;
38972;SDS011;25333;50.762;4.470;2022-10-26T20:16:50;3.55;;;1.20;;
38972;SDS011;25333;50.762;4.470;2022-10-26T20:19:24;3.33;;;1.15;;